createdAt,value
2023-03-08T00:00:56.582Z,6.67
2023-03-08T00:03:26.847Z,5.83
2023-03-08T00:06:02.772Z,6.30
2023-03-08T00:08:33.638Z,6.03
2023-03-08T00:11:07.700Z,5.37
2023-03-08T00:13:39.318Z,6.20
2023-03-08T00:16:15.724Z,6.57
2023-03-08T00:18:46.268Z,5.37
2023-03-08T00:21:21.721Z,6.40
2023-03-08T00:24:04.112Z,6.27
2023-03-08T00:26:34.570Z,6.13
2023-03-08T00:29:06.261Z,6.50
2023-03-08T00:31:37.067Z,5.80
2023-03-08T00:34:07.445Z,5.77
2023-03-08T00:36:41.148Z,6.10
2023-03-08T00:39:15.299Z,6.13
2023-03-08T00:41:46.383Z,6.23
2023-03-08T00:44:17.447Z,6.00
2023-03-08T00:46:50.299Z,6.60
2023-03-08T00:49:23.440Z,6.47
2023-03-08T00:51:58.294Z,6.03
2023-03-08T00:54:34.304Z,5.80
2023-03-08T00:57:05.059Z,6.30
2023-03-08T00:59:36.315Z,6.20
2023-03-08T01:02:07.419Z,5.50
2023-03-08T01:04:41.303Z,5.87
2023-03-08T01:07:15.766Z,6.13
2023-03-08T01:09:46.019Z,5.33
2023-03-08T01:12:17.051Z,6.00
2023-03-08T01:14:49.007Z,6.53
2023-03-08T01:17:19.264Z,6.10
2023-03-08T01:19:49.647Z,6.00
2023-03-08T01:22:25.150Z,6.20
2023-03-08T01:24:55.754Z,7.50
2023-03-08T01:27:26.112Z,6.07
2023-03-08T01:29:56.410Z,5.90
2023-03-08T01:32:26.985Z,5.70
2023-03-08T01:35:02.262Z,5.60
2023-03-08T01:37:36.555Z,5.87
2023-03-08T01:40:09.214Z,5.97
2023-03-08T01:42:41.401Z,5.97
2023-03-08T01:45:41.329Z,6.00
2023-03-08T01:48:11.724Z,6.50
2023-03-08T01:50:42.728Z,5.17
2023-03-08T01:53:16.512Z,5.73
2023-03-08T01:55:46.870Z,5.63
2023-03-08T01:58:17.161Z,7.73
2023-03-08T02:00:47.925Z,6.30
2023-03-08T02:03:18.426Z,6.23
2023-03-08T02:05:48.666Z,6.23
2023-03-08T02:08:21.518Z,6.77
2023-03-08T02:10:51.784Z,6.60
2023-03-08T02:13:23.456Z,6.13
2023-03-08T02:15:57.187Z,6.50
2023-03-08T02:18:27.356Z,6.17
2023-03-08T02:20:57.918Z,6.90
2023-03-08T02:23:30.831Z,6.07
2023-03-08T02:26:05.729Z,6.07
2023-03-08T02:28:36.340Z,6.43
2023-03-08T02:31:09.149Z,6.40
2023-03-08T02:33:39.317Z,6.23
2023-03-08T02:36:11.411Z,6.33
2023-03-08T02:38:44.372Z,6.43
2023-03-08T02:41:14.409Z,6.30
2023-03-08T02:43:44.410Z,6.43
2023-03-08T02:46:15.029Z,6.37
2023-03-08T02:48:46.367Z,6.40
2023-03-08T02:51:16.380Z,6.43
2023-03-08T02:53:49.162Z,5.83
2023-03-08T02:56:19.262Z,5.90
2023-03-08T02:58:49.377Z,5.77
2023-03-08T03:01:19.613Z,5.97
2023-03-08T03:03:49.758Z,5.73
2023-03-08T03:06:22.054Z,4.90
2023-03-08T03:08:54.933Z,5.13
2023-03-08T03:11:26.143Z,5.23
2023-03-08T03:14:01.422Z,5.60
2023-03-08T03:16:31.954Z,5.20
2023-03-08T03:19:02.256Z,4.30
2023-03-08T03:21:32.484Z,4.27
2023-03-08T03:24:05.279Z,5.60
2023-03-08T03:26:35.464Z,6.07
2023-03-08T03:29:05.443Z,5.13
2023-03-08T03:31:35.587Z,5.80
2023-03-08T03:34:05.801Z,5.27
2023-03-08T03:36:35.927Z,5.57
2023-03-08T03:39:09.119Z,5.93
2023-03-08T03:41:39.152Z,5.83
2023-03-08T03:44:09.410Z,5.77
2023-03-08T03:46:39.674Z,6.33
2023-03-08T03:49:09.795Z,6.27
2023-03-08T03:51:40.017Z,5.87
2023-03-08T03:54:12.701Z,6.90
2023-03-08T03:56:42.798Z,7.20
2023-03-08T03:59:12.842Z,6.53
2023-03-08T04:01:43.059Z,6.30
2023-03-08T04:04:13.769Z,6.53
2023-03-08T04:06:43.867Z,7.30
2023-03-08T04:09:18.898Z,6.60
2023-03-08T04:11:48.950Z,6.13
2023-03-08T04:14:22.222Z,6.33
2023-03-08T04:16:52.326Z,6.87
2023-03-08T04:19:22.385Z,7.50
2023-03-08T04:21:52.531Z,6.40
2023-03-08T04:24:25.390Z,6.93
2023-03-08T04:26:55.496Z,6.90
2023-03-08T04:29:25.475Z,7.23
2023-03-08T04:32:00.381Z,6.17
2023-03-08T04:34:30.714Z,7.27
2023-03-08T04:37:00.631Z,8.00
2023-03-08T04:39:33.552Z,7.57
2023-03-08T04:42:03.534Z,7.27
2023-03-08T04:44:33.845Z,8.00
2023-03-08T04:47:03.821Z,7.73
2023-03-08T04:49:33.947Z,7.50
2023-03-08T04:52:03.956Z,8.00
2023-03-08T04:54:39.105Z,7.43
2023-03-08T04:57:09.336Z,8.07
2023-03-08T04:59:39.357Z,8.40
2023-03-08T05:02:09.529Z,8.77
2023-03-08T05:04:39.546Z,7.13
2023-03-08T05:07:09.488Z,7.97
2023-03-08T05:09:43.017Z,9.27
2023-03-08T05:12:13.384Z,7.57
2023-03-08T05:14:43.358Z,8.10
2023-03-08T05:17:13.302Z,7.77
2023-03-08T05:19:43.201Z,8.87
2023-03-08T05:22:13.142Z,8.00
2023-03-08T05:24:47.040Z,8.13
2023-03-08T05:27:17.191Z,8.20
2023-03-08T05:29:47.244Z,8.10
2023-03-08T05:32:17.365Z,6.90
2023-03-08T05:34:47.553Z,8.20
2023-03-08T05:37:17.482Z,7.87
2023-03-08T05:39:50.682Z,7.17
2023-03-08T05:42:21.057Z,7.97
2023-03-08T05:44:50.985Z,9.10
2023-03-08T05:47:20.920Z,7.93
2023-03-08T05:49:50.815Z,7.97
2023-03-08T05:52:20.760Z,8.77
2023-03-08T05:54:53.329Z,8.80
2023-03-08T05:57:23.198Z,7.83
2023-03-08T05:59:53.026Z,8.57
2023-03-08T06:02:22.884Z,8.23
2023-03-08T06:04:52.764Z,9.00
2023-03-08T06:07:22.574Z,8.37
2023-03-08T06:09:56.009Z,8.50
2023-03-08T06:12:25.893Z,7.93
2023-03-08T06:14:55.758Z,6.93
2023-03-08T06:17:25.552Z,7.33
2023-03-08T06:19:55.380Z,7.50
2023-03-08T06:22:25.270Z,6.97
2023-03-08T06:24:57.723Z,6.47
2023-03-08T06:27:27.921Z,6.40
2023-03-08T06:29:58.368Z,5.97
2023-03-08T06:32:28.281Z,5.57
2023-03-08T06:35:00.265Z,5.83
2023-03-08T06:37:30.063Z,5.33
2023-03-08T06:40:03.058Z,5.37
2023-03-08T06:42:41.222Z,5.23
2023-03-08T06:45:13.493Z,5.83
2023-03-08T06:47:44.551Z,6.17
2023-03-08T06:50:15.261Z,5.33
2023-03-08T06:52:45.472Z,4.70
2023-03-08T06:55:18.313Z,5.07
2023-03-08T06:57:48.162Z,3.77
2023-03-08T07:00:18.842Z,3.50
2023-03-08T07:02:49.884Z,3.73
2023-03-08T07:05:20.136Z,3.57
2023-03-08T07:07:50.009Z,4.17
2023-03-08T07:10:23.923Z,3.23
2023-03-08T07:12:54.066Z,2.57
2023-03-08T07:15:26.456Z,2.70
2023-03-08T07:17:59.804Z,2.67
2023-03-08T07:20:30.844Z,2.80
2023-03-08T07:23:02.048Z,2.57
2023-03-08T07:25:34.627Z,2.80
2023-03-08T07:28:04.476Z,2.70
2023-03-08T07:30:34.454Z,2.00
2023-03-08T07:33:04.420Z,7.47
2023-03-08T07:35:34.380Z,3.00
2023-03-08T07:38:04.200Z,2.80
2023-03-08T07:40:36.705Z,2.90
2023-03-08T07:43:06.622Z,2.13
2023-03-08T07:45:36.718Z,2.57
2023-03-08T07:48:06.871Z,2.93
2023-03-08T07:50:36.983Z,2.47
2023-03-08T07:53:07.995Z,1.23
2023-03-08T07:55:40.869Z,1.70
2023-03-08T07:58:10.624Z,1.70
2023-03-08T08:00:40.455Z,3.80
2023-03-08T08:03:10.556Z,3.20
2023-03-08T08:05:40.410Z,2.17
2023-03-08T08:08:10.422Z,2.27
2023-03-08T08:10:42.866Z,2.23
2023-03-08T08:13:12.918Z,2.37
2023-03-08T08:15:42.698Z,1.93
2023-03-08T08:18:12.615Z,2.37
2023-03-08T08:20:42.524Z,0.73
2023-03-08T08:23:12.297Z,1.47
2023-03-08T08:25:46.801Z,1.30
2023-03-08T08:28:16.736Z,1.60
2023-03-08T08:30:46.528Z,1.37
2023-03-08T08:33:16.358Z,3.80
2023-03-08T08:35:46.434Z,1.70
2023-03-08T08:38:16.368Z,1.50
2023-03-08T08:40:48.997Z,1.40
2023-03-08T08:43:19.030Z,1.63
2023-03-08T08:45:49.460Z,1.60
2023-03-08T08:48:19.302Z,1.53
2023-03-08T08:50:49.194Z,1.10
2023-03-08T08:53:19.193Z,1.00
2023-03-08T08:55:51.672Z,1.30
2023-03-08T08:58:21.562Z,1.30
2023-03-08T09:00:51.439Z,1.10
2023-03-08T09:03:21.310Z,1.80
2023-03-08T09:05:51.133Z,1.70
2023-03-08T09:08:20.887Z,1.60
2023-03-08T09:10:53.444Z,1.50
2023-03-08T09:13:23.279Z,1.50
2023-03-08T09:15:53.083Z,1.40
2023-03-08T09:18:22.988Z,1.60
2023-03-08T09:20:53.244Z,1.60
2023-03-08T09:23:23.789Z,1.60
2023-03-08T09:26:04.894Z,1.93
2023-03-08T09:28:34.829Z,1.63
2023-03-08T09:31:12.140Z,1.30
2023-03-08T09:33:42.428Z,1.60
2023-03-08T09:36:13.268Z,1.87
2023-03-08T09:38:43.027Z,1.50
2023-03-08T09:41:30.094Z,1.73
2023-03-08T09:44:13.337Z,1.63
2023-03-08T09:46:49.126Z,2.13
2023-03-08T09:52:27.947Z,1.80
2023-03-08T09:54:57.702Z,1.80
2023-03-08T09:57:36.396Z,1.90
2023-03-08T10:00:12.036Z,1.83
2023-03-08T10:02:50.534Z,1.80
2023-03-08T10:05:26.557Z,1.70
2023-03-08T10:08:05.818Z,1.30
2023-03-08T10:10:44.689Z,2.40
2023-03-08T10:13:44.839Z,5.00
2023-03-08T10:16:24.510Z,2.03
2023-03-08T10:18:58.224Z,2.10
2023-03-08T10:21:30.069Z,1.97
2023-03-08T10:24:05.235Z,1.73
2023-03-08T10:26:35.448Z,2.00
2023-03-08T10:29:07.904Z,1.87
2023-03-08T10:31:37.842Z,2.00
2023-03-08T10:34:15.536Z,2.30
2023-03-08T10:36:54.331Z,1.10
2023-03-08T10:39:24.458Z,2.23
2023-03-08T10:41:58.834Z,2.47
2023-03-08T10:44:43.034Z,2.27
2023-03-08T10:47:22.815Z,2.30
2023-03-08T10:49:52.632Z,2.40
2023-03-08T10:52:29.408Z,1.50
2023-03-08T10:55:07.026Z,2.17
2023-03-08T10:57:37.124Z,1.73
2023-03-08T11:00:24.882Z,4.13
2023-03-08T11:03:05.962Z,2.07
2023-03-08T11:05:35.843Z,2.10
2023-03-08T11:08:05.686Z,2.17
2023-03-08T11:10:35.778Z,2.20
2023-03-08T11:13:09.185Z,2.43
2023-03-08T11:15:45.397Z,2.10
2023-03-08T11:18:31.180Z,2.30
2023-03-08T11:21:06.821Z,2.23
2023-03-08T11:23:44.968Z,2.07
2023-03-08T11:26:21.696Z,2.40
2023-03-08T11:29:08.705Z,2.50
2023-03-08T11:31:51.174Z,1.90
2023-03-08T11:34:48.918Z,2.07
2023-03-08T11:37:29.467Z,2.43
2023-03-08T11:40:08.032Z,2.23
2023-03-08T11:42:49.704Z,2.00
2023-03-08T11:45:26.337Z,2.00
2023-03-08T11:48:47.509Z,2.07
2023-03-08T11:51:25.517Z,2.50
2023-03-08T11:54:06.726Z,2.30
2023-03-08T11:56:58.269Z,2.43
2023-03-08T11:59:36.264Z,2.60
2023-03-08T12:02:14.358Z,2.27
2023-03-08T12:04:53.989Z,2.83
2023-03-08T12:07:29.408Z,2.30
2023-03-08T12:10:04.218Z,2.93
2023-03-08T12:12:37.925Z,2.60
2023-03-08T12:15:17.469Z,2.80
2023-03-08T12:17:54.240Z,2.93
2023-03-08T12:20:27.998Z,2.57
2023-03-08T12:23:03.275Z,3.13
2023-03-08T12:25:35.963Z,2.80
2023-03-08T12:28:12.795Z,2.40
2023-03-08T12:30:54.294Z,2.67
2023-03-08T12:33:25.398Z,2.53
2023-03-08T12:36:01.316Z,2.20
2023-03-08T12:38:37.672Z,2.60
2023-03-08T12:41:09.774Z,2.10
2023-03-08T12:43:40.680Z,2.63
2023-03-08T12:46:12.761Z,2.40
2023-03-08T12:48:51.398Z,2.97
2023-03-08T12:51:29.045Z,3.17
2023-03-08T12:54:03.385Z,2.47
2023-03-08T12:56:37.469Z,3.10
2023-03-08T12:59:37.499Z,3.40
2023-03-08T13:02:27.425Z,3.87
2023-03-08T13:05:23.008Z,3.30
2023-03-08T13:08:17.548Z,4.43
2023-03-08T13:11:02.614Z,3.67
2023-03-08T13:13:41.013Z,3.70
2023-03-08T13:16:23.741Z,4.27
2023-03-08T13:19:03.753Z,4.53
2023-03-08T13:21:36.895Z,4.33
2023-03-08T13:24:17.573Z,4.67
2023-03-08T13:27:01.100Z,5.27
2023-03-08T13:29:34.698Z,5.73
2023-03-08T13:32:24.292Z,5.43
2023-03-08T13:35:05.992Z,5.93
2023-03-08T13:37:35.770Z,5.53
2023-03-08T13:40:21.506Z,6.50
2023-03-08T13:43:02.696Z,6.93
2023-03-08T13:45:32.868Z,7.23
2023-03-08T13:48:05.786Z,6.47
2023-03-08T13:50:38.601Z,8.00
2023-03-08T13:53:13.892Z,6.40
2023-03-08T13:55:50.722Z,7.67
2023-03-08T13:58:31.212Z,7.07
2023-03-08T14:01:03.194Z,7.33
2023-03-08T14:03:34.794Z,6.23
2023-03-08T14:06:04.722Z,6.70
2023-03-08T14:08:34.665Z,6.87
2023-03-08T14:11:10.196Z,7.07
2023-03-08T14:13:42.882Z,6.77
2023-03-08T14:16:27.339Z,7.60
2023-03-08T14:18:57.639Z,6.80
2023-03-08T14:21:29.374Z,6.83
2023-03-08T14:24:01.826Z,6.87
2023-03-08T14:26:36.808Z,6.90
2023-03-08T14:29:22.322Z,6.07
2023-03-08T14:32:07.392Z,6.73
2023-03-08T14:34:39.606Z,6.70
2023-03-08T14:37:16.898Z,6.67
2023-03-08T14:39:48.781Z,5.93
2023-03-08T14:42:27.580Z,5.80
2023-03-08T14:45:00.582Z,6.60
2023-03-08T14:47:32.540Z,5.40
2023-03-08T14:50:07.343Z,6.50
2023-03-08T14:52:40.193Z,6.30
2023-03-08T14:55:24.670Z,6.43
2023-03-08T14:57:59.936Z,4.53
2023-03-08T15:00:31.043Z,6.33
2023-03-08T15:03:02.229Z,6.50
2023-03-08T15:05:33.262Z,6.37
2023-03-08T15:08:03.769Z,5.60
2023-03-08T15:10:37.404Z,6.27
2023-03-08T15:13:16.946Z,6.23
2023-03-08T15:15:47.445Z,6.00
2023-03-08T15:18:17.352Z,6.63
2023-03-08T15:20:50.463Z,5.87
2023-03-08T15:23:23.934Z,5.87
2023-03-08T15:25:54.254Z,6.23
2023-03-08T15:28:26.907Z,6.03
2023-03-08T15:30:57.518Z,6.40
2023-03-08T15:33:27.568Z,7.00
2023-03-08T15:35:57.805Z,6.83
2023-03-08T15:38:27.614Z,5.87
2023-03-08T15:40:57.472Z,7.00
2023-03-08T15:43:31.743Z,6.20
2023-03-08T15:46:01.601Z,6.30
2023-03-08T15:48:31.433Z,6.27
2023-03-08T15:51:02.040Z,6.80
2023-03-08T15:53:35.664Z,6.37
2023-03-08T15:56:06.274Z,6.23
2023-03-08T15:58:38.728Z,6.87
2023-03-08T16:01:09.157Z,6.70
2023-03-08T16:03:39.134Z,5.97
2023-03-08T16:06:12.418Z,5.93
2023-03-08T16:08:43.330Z,6.63
2023-03-08T16:11:15.102Z,6.93
2023-03-08T16:13:47.623Z,7.97
2023-03-08T16:16:17.504Z,8.30
2023-03-08T16:18:47.925Z,7.80
2023-03-08T16:21:18.030Z,8.90
2023-03-08T16:23:47.993Z,9.03
2023-03-08T16:26:19.174Z,10.60
2023-03-08T16:28:51.674Z,10.40
2023-03-08T16:31:23.667Z,11.97
2023-03-08T16:33:53.613Z,11.87
2023-03-08T16:36:23.493Z,12.43
2023-03-08T16:38:55.086Z,12.17
2023-03-08T16:41:26.361Z,11.73
2023-03-08T16:43:59.097Z,11.43
2023-03-08T16:46:29.213Z,11.77
2023-03-08T16:48:59.802Z,11.97
2023-03-08T16:51:31.396Z,11.63
2023-03-08T16:54:01.330Z,11.80
2023-03-08T16:56:32.702Z,10.63
2023-03-08T16:59:05.225Z,11.80
2023-03-08T17:01:35.636Z,10.97
2023-03-08T17:04:05.591Z,11.43
2023-03-08T17:06:35.762Z,11.10
2023-03-08T17:09:07.289Z,12.07
2023-03-08T17:11:38.489Z,11.93
2023-03-08T17:14:12.812Z,12.73
2023-03-08T17:16:43.608Z,11.60
2023-03-08T17:19:15.022Z,13.60
2023-03-08T17:21:44.793Z,12.83
2023-03-08T17:24:17.709Z,12.87
2023-03-08T17:26:50.231Z,12.33
2023-03-08T17:29:22.907Z,12.40
2023-03-08T17:31:53.210Z,12.70
2023-03-08T17:34:23.823Z,10.60
2023-03-08T17:36:53.783Z,11.57
2023-03-08T17:39:23.634Z,11.00
2023-03-08T17:41:53.500Z,10.73
2023-03-08T17:44:25.951Z,10.10
2023-03-08T17:46:55.805Z,11.20
2023-03-08T17:49:25.980Z,9.80
2023-03-08T17:51:56.422Z,10.57
2023-03-08T17:54:26.341Z,10.80
2023-03-08T17:56:56.133Z,11.03
2023-03-08T17:59:28.645Z,9.70
2023-03-08T18:01:58.504Z,11.30
2023-03-08T18:04:28.428Z,10.33
2023-03-08T18:06:59.282Z,10.73
2023-03-08T18:09:29.917Z,9.83
2023-03-08T18:11:59.979Z,10.10
2023-03-08T18:14:39.837Z,11.07
2023-03-08T18:17:10.839Z,10.03
2023-03-08T18:19:41.635Z,9.53
2023-03-08T18:22:11.432Z,10.17
2023-03-08T18:24:41.485Z,10.23
2023-03-08T18:27:11.300Z,9.63
2023-03-08T18:29:43.960Z,10.73
2023-03-08T18:32:13.982Z,11.00
2023-03-08T18:34:44.203Z,10.80
2023-03-08T18:37:14.093Z,10.60
2023-03-08T18:39:44.024Z,10.30
2023-03-08T18:42:14.832Z,10.63
2023-03-08T18:44:47.420Z,10.40
2023-03-08T18:47:17.191Z,10.27
2023-03-08T18:49:47.006Z,10.33
2023-03-08T18:52:16.943Z,9.43
2023-03-08T18:54:48.635Z,10.33
2023-03-08T18:57:18.464Z,10.13
2023-03-08T18:59:50.900Z,9.43
2023-03-08T19:02:23.344Z,8.97
2023-03-08T19:04:53.284Z,10.43
2023-03-08T19:07:23.337Z,10.13
2023-03-08T19:09:56.956Z,10.30
2023-03-08T19:12:27.653Z,10.10
2023-03-08T19:15:00.143Z,9.57
2023-03-08T19:17:30.060Z,11.30
2023-03-08T19:20:00.262Z,11.13
2023-03-08T19:22:30.130Z,11.50
2023-03-08T19:25:01.306Z,11.50
2023-03-08T19:27:31.592Z,11.57
2023-03-08T19:30:04.342Z,12.67
2023-03-08T19:32:34.376Z,11.13
2023-03-08T19:35:04.680Z,11.00
2023-03-08T19:37:35.483Z,11.87
2023-03-08T19:40:05.521Z,11.30
2023-03-08T19:42:35.441Z,12.00
2023-03-08T19:45:09.025Z,11.77
2023-03-08T19:47:38.898Z,9.70
2023-03-08T19:50:09.756Z,11.97
2023-03-08T19:52:39.683Z,12.10
2023-03-08T19:55:10.208Z,12.93
2023-03-08T19:57:41.826Z,12.80
2023-03-08T20:00:16.037Z,13.53
2023-03-08T20:02:46.021Z,13.30
2023-03-08T20:05:15.937Z,13.73
2023-03-08T20:07:45.788Z,14.13
2023-03-08T20:10:20.006Z,14.07
2023-03-08T20:12:51.462Z,13.30
2023-03-08T20:15:23.932Z,12.90
2023-03-08T20:17:53.985Z,13.77
2023-03-08T20:20:24.336Z,13.10
2023-03-08T20:22:54.107Z,13.67
2023-03-08T20:25:23.927Z,15.23
2023-03-08T20:27:53.912Z,13.60
2023-03-08T20:30:26.803Z,14.90
2023-03-08T20:32:56.841Z,14.33
2023-03-08T20:35:27.956Z,13.73
2023-03-08T20:37:57.824Z,13.67
2023-03-08T20:40:27.678Z,14.00
2023-03-08T20:42:59.039Z,14.10
2023-03-08T20:45:32.116Z,16.27
2023-03-08T20:48:01.986Z,15.33
2023-03-08T20:50:32.795Z,15.60
2023-03-08T20:53:02.585Z,23.27
2023-03-08T20:55:32.374Z,14.00
2023-03-08T20:58:02.192Z,15.20
2023-03-08T21:00:34.662Z,15.10
2023-03-08T21:03:04.780Z,15.77
2023-03-08T21:05:36.115Z,15.90
2023-03-08T21:08:06.766Z,15.53
2023-03-08T21:10:37.412Z,14.90
2023-03-08T21:13:08.628Z,15.17
2023-03-08T21:15:41.543Z,16.17
2023-03-08T21:18:11.375Z,14.03
2023-03-08T21:20:41.381Z,16.27
2023-03-08T21:23:11.280Z,15.97
2023-03-08T21:25:41.129Z,16.60
2023-03-08T21:28:11.034Z,14.50
2023-03-08T21:30:44.436Z,15.53
2023-03-08T21:33:14.285Z,14.63
2023-03-08T21:35:44.973Z,15.17
2023-03-08T21:38:14.804Z,14.77
2023-03-08T21:40:45.599Z,14.50
2023-03-08T21:43:15.535Z,15.27
2023-03-08T21:45:47.961Z,14.30
2023-03-08T21:48:17.848Z,15.17
2023-03-08T21:50:47.616Z,14.93
2023-03-08T21:53:17.597Z,14.10
2023-03-08T21:55:47.438Z,15.33
2023-03-08T21:58:17.323Z,16.50
2023-03-08T22:00:50.038Z,14.63
2023-03-08T22:03:19.849Z,15.57
2023-03-08T22:05:50.256Z,14.63
2023-03-08T22:08:20.068Z,14.87
2023-03-08T22:10:51.076Z,15.63
2023-03-08T22:13:20.979Z,14.37
2023-03-08T22:15:53.444Z,15.07
2023-03-08T22:18:23.339Z,15.07
2023-03-08T22:20:53.297Z,12.97
2023-03-08T22:23:23.159Z,13.53
2023-03-08T22:25:52.981Z,13.80
2023-03-08T22:28:23.336Z,13.03
2023-03-08T22:30:55.947Z,15.17
2023-03-08T22:33:25.723Z,14.17
2023-03-08T22:35:55.537Z,14.03
2023-03-08T22:38:25.561Z,13.80
2023-03-08T22:40:55.400Z,14.37
2023-03-08T22:43:25.334Z,14.83
2023-03-08T22:45:57.895Z,13.60
2023-03-08T22:48:27.876Z,11.50
2023-03-08T22:51:10.246Z,14.10
2023-03-08T22:53:41.271Z,12.57
2023-03-08T22:56:19.795Z,13.70
2023-03-08T22:58:49.968Z,13.00
2023-03-08T23:01:24.203Z,13.77
2023-03-08T23:03:57.336Z,12.90
2023-03-08T23:06:28.529Z,12.50
2023-03-08T23:08:58.852Z,12.93
2023-03-08T23:11:29.097Z,13.60
2023-03-08T23:13:58.951Z,12.53
2023-03-08T23:16:31.487Z,13.03
2023-03-08T23:19:01.396Z,14.73
2023-03-08T23:21:33.649Z,12.57
2023-03-08T23:24:03.469Z,13.03
2023-03-08T23:26:33.344Z,14.03
2023-03-08T23:29:06.505Z,12.33
2023-03-08T23:31:41.630Z,14.90
2023-03-08T23:34:11.413Z,12.47
2023-03-08T23:36:41.501Z,12.10
2023-03-08T23:39:11.404Z,14.03
2023-03-08T23:41:42.188Z,13.60
2023-03-08T23:44:13.621Z,14.10
2023-03-08T23:46:47.056Z,13.23
2023-03-08T23:49:17.110Z,14.37
2023-03-08T23:51:46.879Z,15.50
2023-03-08T23:54:16.740Z,13.10
2023-03-08T23:56:46.554Z,15.00
2023-03-08T23:59:19.165Z,12.80
